sensor_id;sensor_type;location;lat;lon;timestamp;P1;durP1;ratioP1;P2;durP2;ratioP2
53525;SDS011;40551;50.478;19.378;2022-08-03T00:02:21;13.00;;;9.80;;
53525;SDS011;40551;50.478;19.378;2022-08-03T00:04:53;16.40;;;9.50;;
53525;SDS011;40551;50.478;19.378;2022-08-03T00:07:24;14.80;;;9.30;;
53525;SDS011;40551;50.478;19.378;2022-08-03T00:12:26;12.70;;;9.40;;
53525;SDS011;40551;50.478;19.378;2022-08-03T00:14:57;12.40;;;9.50;;
53525;SDS011;40551;50.478;19.378;2022-08-03T00:17:29;17.50;;;9.90;;
53525;SDS011;40551;50.478;19.378;2022-08-03T00:22:51;13.40;;;10.40;;
53525;SDS011;40551;50.478;19.378;2022-08-03T00:25:22;14.30;;;11.30;;
53525;SDS011;40551;50.478;19.378;2022-08-03T00:27:54;19.90;;;12.40;;
53525;SDS011;40551;50.478;19.378;2022-08-03T00:30:26;12.20;;;9.50;;
53525;SDS011;40551;50.478;19.378;2022-08-03T00:32:58;9.90;;;8.70;;
53525;SDS011;40551;50.478;19.378;2022-08-03T00:35:30;12.30;;;8.60;;
53525;SDS011;40551;50.478;19.378;2022-08-03T00:38:18;16.40;;;9.70;;
53525;SDS011;40551;50.478;19.378;2022-08-03T00:43:23;12.70;;;10.00;;
53525;SDS011;40551;50.478;19.378;2022-08-03T00:45:55;13.50;;;9.60;;
53525;SDS011;40551;50.478;19.378;2022-08-03T00:51:01;11.90;;;7.40;;
53525;SDS011;40551;50.478;19.378;2022-08-03T00:53:34;16.10;;;10.40;;
53525;SDS011;40551;50.478;19.378;2022-08-03T00:56:07;20.70;;;11.60;;
53525;SDS011;40551;50.478;19.378;2022-08-03T00:58:41;14.60;;;9.90;;
53525;SDS011;40551;50.478;19.378;2022-08-03T01:01:14;17.40;;;9.90;;
53525;SDS011;40551;50.478;19.378;2022-08-03T01:03:46;15.00;;;9.00;;
53525;SDS011;40551;50.478;19.378;2022-08-03T01:06:18;11.10;;;9.90;;
53525;SDS011;40551;50.478;19.378;2022-08-03T01:08:59;14.80;;;10.10;;
53525;SDS011;40551;50.478;19.378;2022-08-03T01:11:39;12.50;;;9.00;;
53525;SDS011;40551;50.478;19.378;2022-08-03T01:14:31;16.20;;;9.70;;
53525;SDS011;40551;50.478;19.378;2022-08-03T01:17:09;14.60;;;10.00;;
53525;SDS011;40551;50.478;19.378;2022-08-03T01:19:47;15.40;;;9.00;;
53525;SDS011;40551;50.478;19.378;2022-08-03T01:22:44;16.10;;;11.70;;
53525;SDS011;40551;50.478;19.378;2022-08-03T01:25:30;15.90;;;11.00;;
53525;SDS011;40551;50.478;19.378;2022-08-03T01:28:14;15.30;;;10.10;;
53525;SDS011;40551;50.478;19.378;2022-08-03T01:30:58;15.40;;;9.40;;
53525;SDS011;40551;50.478;19.378;2022-08-03T01:33:34;12.40;;;9.60;;
53525;SDS011;40551;50.478;19.378;2022-08-03T01:36:10;14.20;;;9.20;;
53525;SDS011;40551;50.478;19.378;2022-08-03T01:38:47;10.90;;;9.10;;
53525;SDS011;40551;50.478;19.378;2022-08-03T01:41:21;13.60;;;9.70;;
53525;SDS011;40551;50.478;19.378;2022-08-03T01:43:58;14.10;;;10.60;;
53525;SDS011;40551;50.478;19.378;2022-08-03T01:46:52;15.40;;;9.30;;
53525;SDS011;40551;50.478;19.378;2022-08-03T01:49:27;13.50;;;8.30;;
53525;SDS011;40551;50.478;19.378;2022-08-03T01:52:02;11.00;;;8.70;;
53525;SDS011;40551;50.478;19.378;2022-08-03T01:54:36;11.10;;;8.80;;
53525;SDS011;40551;50.478;19.378;2022-08-03T01:57:12;14.30;;;8.60;;
53525;SDS011;40551;50.478;19.378;2022-08-03T01:59:47;10.90;;;9.10;;
53525;SDS011;40551;50.478;19.378;2022-08-03T02:02:21;13.50;;;9.80;;
53525;SDS011;40551;50.478;19.378;2022-08-03T02:05:02;15.80;;;10.10;;
53525;SDS011;40551;50.478;19.378;2022-08-03T02:07:40;11.40;;;9.20;;
53525;SDS011;40551;50.478;19.378;2022-08-03T02:10:12;12.90;;;8.80;;
53525;SDS011;40551;50.478;19.378;2022-08-03T02:13:04;16.40;;;9.70;;
53525;SDS011;40551;50.478;19.378;2022-08-03T02:15:39;10.20;;;8.60;;
53525;SDS011;40551;50.478;19.378;2022-08-03T02:18:12;13.90;;;9.40;;
53525;SDS011;40551;50.478;19.378;2022-08-03T02:20:45;13.40;;;9.80;;
53525;SDS011;40551;50.478;19.378;2022-08-03T02:23:19;13.00;;;9.10;;
53525;SDS011;40551;50.478;19.378;2022-08-03T02:25:51;19.10;;;9.20;;
53525;SDS011;40551;50.478;19.378;2022-08-03T02:28:30;12.40;;;8.70;;
53525;SDS011;40551;50.478;19.378;2022-08-03T02:31:06;15.60;;;8.80;;
53525;SDS011;40551;50.478;19.378;2022-08-03T02:33:45;14.20;;;8.50;;
53525;SDS011;40551;50.478;19.378;2022-08-03T02:36:21;12.10;;;8.40;;
53525;SDS011;40551;50.478;19.378;2022-08-03T02:38:59;11.60;;;8.80;;
53525;SDS011;40551;50.478;19.378;2022-08-03T02:41:34;13.80;;;10.50;;
53525;SDS011;40551;50.478;19.378;2022-08-03T02:44:11;12.40;;;10.70;;
53525;SDS011;40551;50.478;19.378;2022-08-03T02:46:45;14.40;;;10.50;;
53525;SDS011;40551;50.478;19.378;2022-08-03T02:49:19;13.30;;;9.70;;
53525;SDS011;40551;50.478;19.378;2022-08-03T02:52:12;17.10;;;9.20;;
53525;SDS011;40551;50.478;19.378;2022-08-03T02:54:45;13.00;;;10.00;;
53525;SDS011;40551;50.478;19.378;2022-08-03T02:57:18;11.30;;;10.00;;
53525;SDS011;40551;50.478;19.378;2022-08-03T02:59:51;14.80;;;10.90;;
53525;SDS011;40551;50.478;19.378;2022-08-03T03:02:24;11.80;;;9.30;;
53525;SDS011;40551;50.478;19.378;2022-08-03T03:04:57;11.30;;;8.90;;
53525;SDS011;40551;50.478;19.378;2022-08-03T03:07:50;12.30;;;9.60;;
53525;SDS011;40551;50.478;19.378;2022-08-03T03:10:23;13.40;;;9.50;;
53525;SDS011;40551;50.478;19.378;2022-08-03T03:12:55;13.50;;;9.60;;
53525;SDS011;40551;50.478;19.378;2022-08-03T03:15:28;12.20;;;8.90;;
53525;SDS011;40551;50.478;19.378;2022-08-03T03:18:00;14.30;;;9.80;;
53525;SDS011;40551;50.478;19.378;2022-08-03T03:20:33;13.50;;;10.30;;
53525;SDS011;40551;50.478;19.378;2022-08-03T03:23:05;16.80;;;11.00;;
53525;SDS011;40551;50.478;19.378;2022-08-03T03:25:38;11.90;;;9.30;;
53525;SDS011;40551;50.478;19.378;2022-08-03T03:28:10;12.10;;;9.40;;
53525;SDS011;40551;50.478;19.378;2022-08-03T03:30:43;14.40;;;9.30;;
53525;SDS011;40551;50.478;19.378;2022-08-03T03:33:21;16.50;;;10.40;;
53525;SDS011;40551;50.478;19.378;2022-08-03T03:35:56;14.70;;;9.50;;
53525;SDS011;40551;50.478;19.378;2022-08-03T03:38:28;15.70;;;11.10;;
53525;SDS011;40551;50.478;19.378;2022-08-03T03:41:00;16.00;;;11.00;;
53525;SDS011;40551;50.478;19.378;2022-08-03T03:43:33;13.30;;;9.60;;
53525;SDS011;40551;50.478;19.378;2022-08-03T03:48:34;12.50;;;8.60;;
53525;SDS011;40551;50.478;19.378;2022-08-03T03:51:09;13.50;;;9.00;;
53525;SDS011;40551;50.478;19.378;2022-08-03T03:53:41;12.30;;;9.20;;
53525;SDS011;40551;50.478;19.378;2022-08-03T03:56:25;14.40;;;8.40;;
53525;SDS011;40551;50.478;19.378;2022-08-03T03:58:57;16.20;;;12.50;;
53525;SDS011;40551;50.478;19.378;2022-08-03T04:01:28;16.10;;;13.90;;
53525;SDS011;40551;50.478;19.378;2022-08-03T04:04:00;15.50;;;9.30;;
53525;SDS011;40551;50.478;19.378;2022-08-03T04:06:46;9.60;;;8.20;;
53525;SDS011;40551;50.478;19.378;2022-08-03T04:09:37;10.40;;;7.90;;
53525;SDS011;40551;50.478;19.378;2022-08-03T04:12:42;11.30;;;8.50;;
53525;SDS011;40551;50.478;19.378;2022-08-03T04:15:18;13.40;;;9.10;;
53525;SDS011;40551;50.478;19.378;2022-08-03T04:17:52;10.40;;;8.30;;
53525;SDS011;40551;50.478;19.378;2022-08-03T04:20:28;14.20;;;8.60;;
53525;SDS011;40551;50.478;19.378;2022-08-03T04:23:01;13.30;;;9.40;;
53525;SDS011;40551;50.478;19.378;2022-08-03T04:25:43;17.10;;;8.80;;
53525;SDS011;40551;50.478;19.378;2022-08-03T04:28:18;14.00;;;8.70;;
53525;SDS011;40551;50.478;19.378;2022-08-03T04:30:59;13.70;;;9.00;;
53525;SDS011;40551;50.478;19.378;2022-08-03T04:33:33;12.50;;;8.80;;
53525;SDS011;40551;50.478;19.378;2022-08-03T04:36:07;11.60;;;8.30;;
53525;SDS011;40551;50.478;19.378;2022-08-03T04:38:43;13.10;;;8.00;;
53525;SDS011;40551;50.478;19.378;2022-08-03T04:41:23;10.40;;;7.80;;
53525;SDS011;40551;50.478;19.378;2022-08-03T04:43:57;15.50;;;7.60;;
53525;SDS011;40551;50.478;19.378;2022-08-03T04:46:31;21.50;;;11.20;;
53525;SDS011;40551;50.478;19.378;2022-08-03T04:49:14;12.30;;;9.70;;
53525;SDS011;40551;50.478;19.378;2022-08-03T04:51:47;15.80;;;8.60;;
53525;SDS011;40551;50.478;19.378;2022-08-03T04:54:19;10.10;;;7.10;;
53525;SDS011;40551;50.478;19.378;2022-08-03T04:56:51;13.50;;;7.60;;
53525;SDS011;40551;50.478;19.378;2022-08-03T04:59:22;12.20;;;7.50;;
53525;SDS011;40551;50.478;19.378;2022-08-03T05:01:54;14.10;;;8.30;;
53525;SDS011;40551;50.478;19.378;2022-08-03T05:04:26;16.30;;;8.00;;
53525;SDS011;40551;50.478;19.378;2022-08-03T05:06:57;12.40;;;7.60;;
53525;SDS011;40551;50.478;19.378;2022-08-03T05:09:40;12.20;;;7.10;;
53525;SDS011;40551;50.478;19.378;2022-08-03T05:12:18;12.90;;;7.90;;
53525;SDS011;40551;50.478;19.378;2022-08-03T05:14:50;12.20;;;8.60;;
53525;SDS011;40551;50.478;19.378;2022-08-03T05:17:21;10.20;;;8.70;;
53525;SDS011;40551;50.478;19.378;2022-08-03T05:19:53;10.70;;;9.60;;
53525;SDS011;40551;50.478;19.378;2022-08-03T05:22:25;17.30;;;11.90;;
53525;SDS011;40551;50.478;19.378;2022-08-03T05:24:56;10.20;;;8.80;;
53525;SDS011;40551;50.478;19.378;2022-08-03T05:27:29;13.40;;;9.90;;
53525;SDS011;40551;50.478;19.378;2022-08-03T05:30:01;12.80;;;10.20;;
53525;SDS011;40551;50.478;19.378;2022-08-03T05:32:53;11.70;;;9.60;;
53525;SDS011;40551;50.478;19.378;2022-08-03T05:35:24;12.60;;;9.80;;
53525;SDS011;40551;50.478;19.378;2022-08-03T05:38:16;12.60;;;9.40;;
53525;SDS011;40551;50.478;19.378;2022-08-03T05:40:56;12.40;;;10.30;;
53525;SDS011;40551;50.478;19.378;2022-08-03T05:43:48;11.50;;;9.40;;
53525;SDS011;40551;50.478;19.378;2022-08-03T05:46:20;13.50;;;9.70;;
53525;SDS011;40551;50.478;19.378;2022-08-03T05:48:52;12.90;;;9.80;;
53525;SDS011;40551;50.478;19.378;2022-08-03T05:51:24;11.30;;;9.70;;
53525;SDS011;40551;50.478;19.378;2022-08-03T05:53:56;12.10;;;9.50;;
53525;SDS011;40551;50.478;19.378;2022-08-03T05:56:28;16.20;;;9.50;;
53525;SDS011;40551;50.478;19.378;2022-08-03T05:59:00;13.10;;;9.40;;
53525;SDS011;40551;50.478;19.378;2022-08-03T06:01:51;12.00;;;8.60;;
53525;SDS011;40551;50.478;19.378;2022-08-03T06:04:23;11.20;;;8.40;;
53525;SDS011;40551;50.478;19.378;2022-08-03T06:06:54;11.00;;;8.10;;
53525;SDS011;40551;50.478;19.378;2022-08-03T06:09:26;10.40;;;8.70;;
53525;SDS011;40551;50.478;19.378;2022-08-03T06:12:18;13.40;;;9.10;;
53525;SDS011;40551;50.478;19.378;2022-08-03T06:14:50;12.10;;;8.90;;
53525;SDS011;40551;50.478;19.378;2022-08-03T06:17:21;10.40;;;9.10;;
53525;SDS011;40551;50.478;19.378;2022-08-03T06:19:54;16.20;;;9.90;;
53525;SDS011;40551;50.478;19.378;2022-08-03T06:22:26;13.20;;;8.70;;
53525;SDS011;40551;50.478;19.378;2022-08-03T06:24:57;11.50;;;8.70;;
53525;SDS011;40551;50.478;19.378;2022-08-03T06:27:32;14.50;;;8.90;;
53525;SDS011;40551;50.478;19.378;2022-08-03T06:30:10;11.10;;;8.50;;
53525;SDS011;40551;50.478;19.378;2022-08-03T06:32:48;16.60;;;8.60;;
53525;SDS011;40551;50.478;19.378;2022-08-03T06:35:20;12.20;;;8.10;;
53525;SDS011;40551;50.478;19.378;2022-08-03T06:37:52;12.50;;;8.40;;
53525;SDS011;40551;50.478;19.378;2022-08-03T06:40:24;8.60;;;6.40;;
53525;SDS011;40551;50.478;19.378;2022-08-03T06:42:59;11.50;;;6.90;;
53525;SDS011;40551;50.478;19.378;2022-08-03T06:45:32;10.50;;;7.10;;
53525;SDS011;40551;50.478;19.378;2022-08-03T06:48:04;10.40;;;7.80;;
53525;SDS011;40551;50.478;19.378;2022-08-03T06:50:38;11.80;;;7.80;;
53525;SDS011;40551;50.478;19.378;2022-08-03T06:53:12;9.30;;;7.30;;
53525;SDS011;40551;50.478;19.378;2022-08-03T06:55:49;10.40;;;7.60;;
53525;SDS011;40551;50.478;19.378;2022-08-03T06:58:22;12.30;;;9.00;;
53525;SDS011;40551;50.478;19.378;2022-08-03T07:00:54;14.10;;;9.60;;
53525;SDS011;40551;50.478;19.378;2022-08-03T07:03:26;10.90;;;8.50;;
53525;SDS011;40551;50.478;19.378;2022-08-03T07:05:58;10.70;;;9.20;;
53525;SDS011;40551;50.478;19.378;2022-08-03T07:08:31;13.80;;;9.30;;
53525;SDS011;40551;50.478;19.378;2022-08-03T07:11:03;12.60;;;9.50;;
53525;SDS011;40551;50.478;19.378;2022-08-03T07:13:35;14.20;;;9.30;;
53525;SDS011;40551;50.478;19.378;2022-08-03T07:16:09;13.10;;;9.00;;
53525;SDS011;40551;50.478;19.378;2022-08-03T07:18:40;13.20;;;9.80;;
53525;SDS011;40551;50.478;19.378;2022-08-03T07:21:12;15.20;;;9.80;;
53525;SDS011;40551;50.478;19.378;2022-08-03T07:23:44;11.80;;;8.80;;
53525;SDS011;40551;50.478;19.378;2022-08-03T07:26:16;11.70;;;8.60;;
53525;SDS011;40551;50.478;19.378;2022-08-03T07:28:47;11.20;;;7.00;;
53525;SDS011;40551;50.478;19.378;2022-08-03T07:31:19;9.70;;;6.80;;
53525;SDS011;40551;50.478;19.378;2022-08-03T07:33:50;11.10;;;7.50;;
53525;SDS011;40551;50.478;19.378;2022-08-03T07:36:22;17.10;;;7.70;;
53525;SDS011;40551;50.478;19.378;2022-08-03T07:38:55;10.80;;;7.30;;
53525;SDS011;40551;50.478;19.378;2022-08-03T07:41:26;12.70;;;7.40;;
53525;SDS011;40551;50.478;19.378;2022-08-03T07:43:59;11.10;;;7.10;;
53525;SDS011;40551;50.478;19.378;2022-08-03T07:46:31;9.20;;;6.10;;
53525;SDS011;40551;50.478;19.378;2022-08-03T07:49:02;9.20;;;5.90;;
53525;SDS011;40551;50.478;19.378;2022-08-03T07:51:34;10.70;;;6.90;;
53525;SDS011;40551;50.478;19.378;2022-08-03T07:54:06;13.60;;;7.70;;
53525;SDS011;40551;50.478;19.378;2022-08-03T07:56:38;11.80;;;7.40;;
53525;SDS011;40551;50.478;19.378;2022-08-03T07:59:09;9.60;;;7.20;;
53525;SDS011;40551;50.478;19.378;2022-08-03T08:01:41;10.30;;;8.10;;
53525;SDS011;40551;50.478;19.378;2022-08-03T08:04:13;10.40;;;6.90;;
53525;SDS011;40551;50.478;19.378;2022-08-03T08:06:44;12.00;;;7.40;;
53525;SDS011;40551;50.478;19.378;2022-08-03T08:09:16;14.10;;;7.80;;
53525;SDS011;40551;50.478;19.378;2022-08-03T08:11:48;10.10;;;7.30;;
53525;SDS011;40551;50.478;19.378;2022-08-03T08:14:19;13.30;;;8.10;;
53525;SDS011;40551;50.478;19.378;2022-08-03T08:16:51;10.60;;;7.10;;
53525;SDS011;40551;50.478;19.378;2022-08-03T08:19:22;14.90;;;7.30;;
53525;SDS011;40551;50.478;19.378;2022-08-03T08:21:58;12.20;;;7.10;;
53525;SDS011;40551;50.478;19.378;2022-08-03T08:24:31;12.30;;;7.60;;
53525;SDS011;40551;50.478;19.378;2022-08-03T08:27:04;12.60;;;7.60;;
53525;SDS011;40551;50.478;19.378;2022-08-03T08:29:36;9.30;;;7.10;;
53525;SDS011;40551;50.478;19.378;2022-08-03T08:32:24;11.60;;;8.20;;
53525;SDS011;40551;50.478;19.378;2022-08-03T08:34:55;10.90;;;7.40;;
53525;SDS011;40551;50.478;19.378;2022-08-03T08:37:27;11.30;;;7.00;;
53525;SDS011;40551;50.478;19.378;2022-08-03T08:39:59;10.90;;;7.20;;
53525;SDS011;40551;50.478;19.378;2022-08-03T08:42:31;10.00;;;7.20;;
53525;SDS011;40551;50.478;19.378;2022-08-03T08:45:03;9.70;;;7.60;;
53525;SDS011;40551;50.478;19.378;2022-08-03T08:47:37;10.70;;;7.40;;
53525;SDS011;40551;50.478;19.378;2022-08-03T08:50:20;13.80;;;8.40;;
53525;SDS011;40551;50.478;19.378;2022-08-03T08:52:56;15.40;;;8.40;;
53525;SDS011;40551;50.478;19.378;2022-08-03T08:55:31;8.90;;;7.00;;
53525;SDS011;40551;50.478;19.378;2022-08-03T08:58:23;11.50;;;7.70;;
53525;SDS011;40551;50.478;19.378;2022-08-03T09:00:57;11.40;;;8.30;;
53525;SDS011;40551;50.478;19.378;2022-08-03T09:03:30;10.60;;;7.80;;
53525;SDS011;40551;50.478;19.378;2022-08-03T09:06:06;9.80;;;7.10;;
53525;SDS011;40551;50.478;19.378;2022-08-03T09:08:38;12.30;;;8.00;;
53525;SDS011;40551;50.478;19.378;2022-08-03T09:11:09;17.00;;;9.60;;
53525;SDS011;40551;50.478;19.378;2022-08-03T09:13:42;11.50;;;8.10;;
53525;SDS011;40551;50.478;19.378;2022-08-03T09:16:14;11.00;;;7.70;;
53525;SDS011;40551;50.478;19.378;2022-08-03T09:18:48;11.20;;;7.50;;
53525;SDS011;40551;50.478;19.378;2022-08-03T09:21:22;11.50;;;7.70;;
53525;SDS011;40551;50.478;19.378;2022-08-03T09:24:00;9.90;;;7.40;;
53525;SDS011;40551;50.478;19.378;2022-08-03T09:26:48;12.80;;;7.60;;
53525;SDS011;40551;50.478;19.378;2022-08-03T09:29:21;11.20;;;7.10;;
53525;SDS011;40551;50.478;19.378;2022-08-03T09:31:58;10.90;;;7.20;;
53525;SDS011;40551;50.478;19.378;2022-08-03T09:34:30;12.60;;;7.10;;
53525;SDS011;40551;50.478;19.378;2022-08-03T09:37:02;10.10;;;6.50;;
53525;SDS011;40551;50.478;19.378;2022-08-03T09:39:44;9.10;;;6.00;;
53525;SDS011;40551;50.478;19.378;2022-08-03T09:42:16;9.80;;;6.50;;
53525;SDS011;40551;50.478;19.378;2022-08-03T09:44:52;11.60;;;6.90;;
53525;SDS011;40551;50.478;19.378;2022-08-03T09:47:27;10.50;;;7.40;;
53525;SDS011;40551;50.478;19.378;2022-08-03T09:50:01;12.20;;;7.00;;
53525;SDS011;40551;50.478;19.378;2022-08-03T09:52:34;14.20;;;7.00;;
53525;SDS011;40551;50.478;19.378;2022-08-03T09:55:18;12.80;;;7.30;;
53525;SDS011;40551;50.478;19.378;2022-08-03T09:58:11;9.00;;;6.50;;
53525;SDS011;40551;50.478;19.378;2022-08-03T10:00:52;11.50;;;7.00;;
53525;SDS011;40551;50.478;19.378;2022-08-03T10:03:26;10.10;;;6.80;;
53525;SDS011;40551;50.478;19.378;2022-08-03T10:05:59;11.40;;;8.80;;
53525;SDS011;40551;50.478;19.378;2022-08-03T10:08:45;9.00;;;6.70;;
53525;SDS011;40551;50.478;19.378;2022-08-03T10:11:33;11.80;;;6.70;;
53525;SDS011;40551;50.478;19.378;2022-08-03T10:14:10;11.00;;;6.50;;
53525;SDS011;40551;50.478;19.378;2022-08-03T10:16:47;7.60;;;5.40;;
53525;SDS011;40551;50.478;19.378;2022-08-03T10:19:18;12.30;;;5.70;;
53525;SDS011;40551;50.478;19.378;2022-08-03T10:21:52;24.90;;;7.90;;
53525;SDS011;40551;50.478;19.378;2022-08-03T10:24:27;9.60;;;6.10;;
53525;SDS011;40551;50.478;19.378;2022-08-03T10:27:00;8.40;;;5.90;;
53525;SDS011;40551;50.478;19.378;2022-08-03T10:29:36;9.40;;;5.90;;
53525;SDS011;40551;50.478;19.378;2022-08-03T10:32:09;8.70;;;5.70;;
53525;SDS011;40551;50.478;19.378;2022-08-03T10:34:47;8.30;;;5.70;;
53525;SDS011;40551;50.478;19.378;2022-08-03T10:40:00;10.20;;;5.80;;
53525;SDS011;40551;50.478;19.378;2022-08-03T10:42:33;9.80;;;6.70;;
53525;SDS011;40551;50.478;19.378;2022-08-03T10:45:08;11.30;;;6.40;;
53525;SDS011;40551;50.478;19.378;2022-08-03T10:47:47;8.40;;;6.00;;
53525;SDS011;40551;50.478;19.378;2022-08-03T10:50:21;8.30;;;5.60;;
53525;SDS011;40551;50.478;19.378;2022-08-03T10:52:55;9.00;;;5.50;;
53525;SDS011;40551;50.478;19.378;2022-08-03T10:55:32;10.70;;;5.50;;
53525;SDS011;40551;50.478;19.378;2022-08-03T11:04:28;9.80;;;6.00;;
53525;SDS011;40551;50.478;19.378;2022-08-03T11:07:19;8.20;;;5.80;;
53525;SDS011;40551;50.478;19.378;2022-08-03T11:09:52;9.50;;;5.80;;
53525;SDS011;40551;50.478;19.378;2022-08-03T11:12:25;7.90;;;5.70;;
53525;SDS011;40551;50.478;19.378;2022-08-03T11:15:01;8.60;;;5.40;;
53525;SDS011;40551;50.478;19.378;2022-08-03T11:17:36;10.20;;;5.30;;
53525;SDS011;40551;50.478;19.378;2022-08-03T11:20:14;10.00;;;7.90;;
53525;SDS011;40551;50.478;19.378;2022-08-03T11:23:06;11.00;;;6.40;;
53525;SDS011;40551;50.478;19.378;2022-08-03T11:28:38;8.90;;;5.50;;
53525;SDS011;40551;50.478;19.378;2022-08-03T11:34:25;10.80;;;5.60;;
53525;SDS011;40551;50.478;19.378;2022-08-03T11:39:59;10.20;;;6.00;;
53525;SDS011;40551;50.478;19.378;2022-08-03T11:42:41;8.70;;;5.40;;
53525;SDS011;40551;50.478;19.378;2022-08-03T11:45:14;9.80;;;5.80;;
53525;SDS011;40551;50.478;19.378;2022-08-03T11:47:47;11.30;;;6.00;;
53525;SDS011;40551;50.478;19.378;2022-08-03T11:53:17;8.90;;;5.00;;
53525;SDS011;40551;50.478;19.378;2022-08-03T11:55:49;8.60;;;5.70;;
53525;SDS011;40551;50.478;19.378;2022-08-03T11:58:21;9.70;;;5.10;;
53525;SDS011;40551;50.478;19.378;2022-08-03T12:01:15;9.20;;;5.10;;
53525;SDS011;40551;50.478;19.378;2022-08-03T12:03:51;8.20;;;5.10;;
53525;SDS011;40551;50.478;19.378;2022-08-03T12:06:23;14.70;;;5.20;;
53525;SDS011;40551;50.478;19.378;2022-08-03T12:08:54;10.00;;;5.40;;
53525;SDS011;40551;50.478;19.378;2022-08-03T12:11:29;8.80;;;4.60;;
53525;SDS011;40551;50.478;19.378;2022-08-03T12:14:01;8.70;;;5.50;;
53525;SDS011;40551;50.478;19.378;2022-08-03T12:16:52;9.00;;;5.50;;
53525;SDS011;40551;50.478;19.378;2022-08-03T12:19:24;10.60;;;5.00;;
53525;SDS011;40551;50.478;19.378;2022-08-03T12:21:56;8.40;;;5.20;;
53525;SDS011;40551;50.478;19.378;2022-08-03T12:24:38;9.90;;;5.50;;
53525;SDS011;40551;50.478;19.378;2022-08-03T12:27:22;8.80;;;4.90;;
53525;SDS011;40551;50.478;19.378;2022-08-03T12:29:58;8.30;;;5.40;;
53525;SDS011;40551;50.478;19.378;2022-08-03T12:32:34;10.30;;;5.80;;
53525;SDS011;40551;50.478;19.378;2022-08-03T12:35:06;10.50;;;5.10;;
53525;SDS011;40551;50.478;19.378;2022-08-03T12:37:39;12.80;;;6.40;;
53525;SDS011;40551;50.478;19.378;2022-08-03T12:40:16;8.60;;;5.50;;
53525;SDS011;40551;50.478;19.378;2022-08-03T12:42:57;9.40;;;5.90;;
53525;SDS011;40551;50.478;19.378;2022-08-03T12:45:28;12.40;;;5.80;;
53525;SDS011;40551;50.478;19.378;2022-08-03T12:48:08;14.70;;;6.80;;
53525;SDS011;40551;50.478;19.378;2022-08-03T12:50:40;9.50;;;6.30;;
53525;SDS011;40551;50.478;19.378;2022-08-03T12:53:27;8.20;;;5.30;;
53525;SDS011;40551;50.478;19.378;2022-08-03T12:56:01;8.60;;;5.40;;
53525;SDS011;40551;50.478;19.378;2022-08-03T12:58:34;10.70;;;5.90;;
53525;SDS011;40551;50.478;19.378;2022-08-03T13:01:06;9.50;;;6.00;;
53525;SDS011;40551;50.478;19.378;2022-08-03T13:03:42;9.40;;;5.80;;
53525;SDS011;40551;50.478;19.378;2022-08-03T13:06:21;13.00;;;6.10;;
53525;SDS011;40551;50.478;19.378;2022-08-03T13:09:04;9.90;;;5.60;;
53525;SDS011;40551;50.478;19.378;2022-08-03T13:11:37;8.30;;;5.60;;
53525;SDS011;40551;50.478;19.378;2022-08-03T13:14:29;9.20;;;5.50;;
53525;SDS011;40551;50.478;19.378;2022-08-03T13:17:01;7.30;;;5.20;;
53525;SDS011;40551;50.478;19.378;2022-08-03T13:19:34;11.30;;;5.10;;
53525;SDS011;40551;50.478;19.378;2022-08-03T13:34:21;13.20;;;6.00;;
53525;SDS011;40551;50.478;19.378;2022-08-03T13:36:50;10.00;;;5.60;;
53525;SDS011;40551;50.478;19.378;2022-08-03T13:39:35;8.50;;;5.70;;
53525;SDS011;40551;50.478;19.378;2022-08-03T13:42:24;11.30;;;6.20;;
53525;SDS011;40551;50.478;19.378;2022-08-03T13:44:53;8.70;;;5.90;;
53525;SDS011;40551;50.478;19.378;2022-08-03T13:47:21;11.30;;;5.90;;
53525;SDS011;40551;50.478;19.378;2022-08-03T13:49:50;9.00;;;5.50;;
53525;SDS011;40551;50.478;19.378;2022-08-03T13:52:29;9.60;;;6.00;;
53525;SDS011;40551;50.478;19.378;2022-08-03T13:54:58;13.40;;;6.20;;
53525;SDS011;40551;50.478;19.378;2022-08-03T13:57:27;11.60;;;5.80;;
53525;SDS011;40551;50.478;19.378;2022-08-03T14:00:16;10.40;;;5.70;;
53525;SDS011;40551;50.478;19.378;2022-08-03T14:02:56;9.30;;;5.80;;
53525;SDS011;40551;50.478;19.378;2022-08-03T14:05:33;9.00;;;5.50;;
53525;SDS011;40551;50.478;19.378;2022-08-03T14:08:03;9.80;;;5.30;;
53525;SDS011;40551;50.478;19.378;2022-08-03T14:10:33;9.30;;;5.10;;
53525;SDS011;40551;50.478;19.378;2022-08-03T14:13:02;8.80;;;5.70;;
53525;SDS011;40551;50.478;19.378;2022-08-03T14:15:31;9.50;;;5.60;;
53525;SDS011;40551;50.478;19.378;2022-08-03T14:18:05;7.90;;;4.90;;
53525;SDS011;40551;50.478;19.378;2022-08-03T14:20:42;11.90;;;5.00;;
53525;SDS011;40551;50.478;19.378;2022-08-03T14:23:20;9.70;;;5.40;;
53525;SDS011;40551;50.478;19.378;2022-08-03T14:25:48;10.90;;;5.10;;
53525;SDS011;40551;50.478;19.378;2022-08-03T14:30:49;7.70;;;5.00;;
53525;SDS011;40551;50.478;19.378;2022-08-03T14:33:27;8.60;;;4.60;;
53525;SDS011;40551;50.478;19.378;2022-08-03T14:35:57;8.10;;;4.90;;
53525;SDS011;40551;50.478;19.378;2022-08-03T14:38:25;8.10;;;5.20;;
53525;SDS011;40551;50.478;19.378;2022-08-03T14:40:53;10.40;;;5.70;;
53525;SDS011;40551;50.478;19.378;2022-08-03T14:43:22;8.10;;;5.20;;
53525;SDS011;40551;50.478;19.378;2022-08-03T14:45:51;8.00;;;5.20;;
53525;SDS011;40551;50.478;19.378;2022-08-03T14:48:20;7.40;;;5.00;;
53525;SDS011;40551;50.478;19.378;2022-08-03T14:51:09;10.70;;;5.30;;
53525;SDS011;40551;50.478;19.378;2022-08-03T14:53:37;10.30;;;4.60;;
53525;SDS011;40551;50.478;19.378;2022-08-03T14:56:06;8.80;;;4.70;;
53525;SDS011;40551;50.478;19.378;2022-08-03T14:58:37;9.90;;;5.00;;
53525;SDS011;40551;50.478;19.378;2022-08-03T15:01:05;7.80;;;4.80;;
53525;SDS011;40551;50.478;19.378;2022-08-03T15:03:54;8.80;;;5.00;;
53525;SDS011;40551;50.478;19.378;2022-08-03T15:06:22;7.80;;;5.40;;
53525;SDS011;40551;50.478;19.378;2022-08-03T15:08:50;9.10;;;4.60;;
53525;SDS011;40551;50.478;19.378;2022-08-03T15:11:39;8.20;;;4.90;;
53525;SDS011;40551;50.478;19.378;2022-08-03T15:14:08;9.90;;;4.80;;
53525;SDS011;40551;50.478;19.378;2022-08-03T15:16:36;10.10;;;5.10;;
53525;SDS011;40551;50.478;19.378;2022-08-03T15:19:04;13.70;;;5.30;;
53525;SDS011;40551;50.478;19.378;2022-08-03T15:21:53;11.00;;;5.10;;
53525;SDS011;40551;50.478;19.378;2022-08-03T15:24:21;8.30;;;5.10;;
53525;SDS011;40551;50.478;19.378;2022-08-03T15:26:50;9.20;;;5.30;;
53525;SDS011;40551;50.478;19.378;2022-08-03T15:29:18;8.40;;;5.20;;
53525;SDS011;40551;50.478;19.378;2022-08-03T15:32:07;10.10;;;5.40;;
53525;SDS011;40551;50.478;19.378;2022-08-03T15:34:36;9.90;;;5.40;;
53525;SDS011;40551;50.478;19.378;2022-08-03T15:37:04;8.90;;;5.20;;
53525;SDS011;40551;50.478;19.378;2022-08-03T15:39:43;9.00;;;5.10;;
53525;SDS011;40551;50.478;19.378;2022-08-03T15:42:27;9.70;;;5.50;;
53525;SDS011;40551;50.478;19.378;2022-08-03T15:44:56;9.30;;;5.30;;
53525;SDS011;40551;50.478;19.378;2022-08-03T15:47:25;9.00;;;5.40;;
53525;SDS011;40551;50.478;19.378;2022-08-03T15:49:53;10.00;;;5.20;;
53525;SDS011;40551;50.478;19.378;2022-08-03T15:52:22;9.20;;;5.00;;
53525;SDS011;40551;50.478;19.378;2022-08-03T15:54:50;9.00;;;4.60;;
53525;SDS011;40551;50.478;19.378;2022-08-03T15:57:18;16.60;;;5.00;;
53525;SDS011;40551;50.478;19.378;2022-08-03T15:59:47;13.80;;;5.20;;